PWSweather.com
Personal Weather Stations
Station Observations
PENICUIKWS
PenicuikGB

PenicuikGB

Lat: 55.830932, Lon: -3.224533000000065

Elevation: 166

Station Type: Fine Offset

http://weather.penicuik.org

High Low Average
Temperature 51.4°F10.8°F 43.7°F6.5°F 47.7°F8.7°F
Dew Point 47.7°F8.7°F 40.2°F4.6°F 43.5°F6.4°F
Winds 14.5 mph -23.3 mph - Calm Calm 3.7 mph 6.0 mph
Wind Gusts 15.9 mph25.6 mph -- 5.3 mph8.5 mph
Humidity 97% 70% 86%
Pressure 29.76 in1007.80 in 29.36 in994.20 in -
Precipitation 1.10 in27.90 in - -
Hour Temp Dew Point Humidity Winds Wind Gusts Pressure Precip Precip Rate Daily Precip Total
12:01 AM 46.6°F8.1°C 45.2°F7.3°C 95% Calm Calm -- 29.36 in994.2 mb 0.05 in1.3 mm 3.00 in76.2 mm 0.06 in1.5 mm
12:31 AM 46.8°F8.2°C 45.7°F7.6°C 96% Calm Calm -- 29.37 in994.6 mb 0.04 in1.0 mm 0.00 in0.0 mm 0.09 in2.3 mm
01:01 AM 47.3°F8.5°C 46.2°F7.9°C 96% 3.8 mph N6.1 kmh N 3.8 mph6.1 kmh 29.37 in994.6 mb 0.04 in1.0 mm 0.00 in0.0 mm 0.13 in3.3 mm
01:31 AM 48.6°F9.2°C 47.5°F8.6°C 96% 9.2 mph N14.8 kmh N 9.2 mph14.8 kmh 29.38 in994.9 mb 0.02 in0.5 mm 0.00 in0.0 mm 0.15 in3.8 mm
02:01 AM 48.6°F9.2°C 47.5°F8.6°C 96% 4.5 mph N7.2 kmh N 4.5 mph7.2 kmh 29.38 in994.9 mb 0.01 in0.3 mm 0.00 in0.0 mm 0.17 in4.3 mm
02:31 AM 48.2°F9.0°C 47.1°F8.4°C 96% 6.0 mph SW9.7 kmh SW 6.0 mph9.7 kmh 29.40 in995.6 mb 0.02 in0.5 mm 0.02 in0.5 mm 0.19 in4.8 mm
03:01 AM 48.2°F9.0°C 47.1°F8.4°C 96% 7.6 mph N12.2 kmh N 7.6 mph12.2 kmh 29.39 in995.3 mb 0.02 in0.5 mm 0.00 in0.0 mm 0.21 in5.3 mm
03:31 AM 48.2°F9.0°C 47.1°F8.4°C 96% 2.2 mph N3.5 kmh N 2.2 mph3.5 kmh 29.40 in995.6 mb 0.06 in1.5 mm 0.08 in2.0 mm 0.27 in6.9 mm
04:01 AM 48.2°F9.0°C 47.1°F8.4°C 96% 3.8 mph NNE6.1 kmh NNE 3.8 mph6.1 kmh 29.40 in995.6 mb 0.01 in0.3 mm 0.00 in0.0 mm 0.28 in7.1 mm
04:31 AM 48.2°F9.0°C 47.1°F8.4°C 96% 3.8 mph N6.1 kmh N 3.8 mph6.1 kmh 29.41 in995.9 mb 0.04 in1.0 mm 0.06 in1.5 mm 0.32 in8.1 mm
05:01 AM 48.2°F9.0°C 47.1°F8.4°C 96% 3.8 mph N6.1 kmh N 3.8 mph6.1 kmh 29.42 in996.3 mb 0.06 in1.5 mm 0.04 in1.0 mm 0.38 in9.7 mm
05:31 AM 48.6°F9.2°C 47.7°F8.7°C 97% 3.8 mph N6.1 kmh N 3.8 mph6.1 kmh 29.42 in996.3 mb 0.08 in2.0 mm 0.04 in1.0 mm 0.46 in11.7 mm
06:01 AM 48.2°F9.0°C 47.4°F8.6°C 97% 7.6 mph N12.2 kmh N 7.6 mph12.2 kmh 29.43 in996.6 mb 0.12 in3.0 mm 0.08 in2.0 mm 0.58 in14.7 mm
06:31 AM 48.4°F9.1°C 47.6°F8.7°C 97% 7.6 mph N12.2 kmh N 7.6 mph12.2 kmh 29.44 in997.0 mb 0.09 in2.3 mm 0.00 in0.0 mm 0.67 in17.0 mm
07:01 AM 48.2°F9.0°C 47.4°F8.6°C 97% 6.9 mph NE11.1 kmh NE 6.9 mph11.1 kmh 29.43 in996.6 mb 0.13 in3.3 mm 0.08 in2.0 mm 0.80 in20.3 mm
07:31 AM 47.7°F8.7°C 46.9°F8.3°C 97% 5.4 mph N8.7 kmh N 5.4 mph8.7 kmh 29.46 in997.6 mb 0.09 in2.3 mm 0.00 in0.0 mm 0.90 in22.9 mm
08:01 AM 46.8°F8.2°C 46.0°F7.8°C 97% 5.4 mph N8.7 kmh N 5.4 mph8.7 kmh 29.46 in997.6 mb 0.05 in1.3 mm 0.00 in0.0 mm 0.94 in23.9 mm
08:31 AM 46.2°F7.9°C 45.4°F7.4°C 97% 3.8 mph NE6.1 kmh NE 3.8 mph6.1 kmh 29.47 in998.0 mb 0.05 in1.3 mm 0.00 in0.0 mm 0.99 in25.1 mm
09:01 AM 45.9°F7.7°C 45.1°F7.3°C 97% 4.5 mph NE7.2 kmh NE 4.5 mph7.2 kmh 29.48 in998.3 mb 0.02 in0.5 mm 0.00 in0.0 mm 1.02 in25.9 mm
09:31 AM 46.6°F8.1°C 45.5°F7.5°C 96% 9.2 mph W14.8 kmh W 9.2 mph14.8 kmh 29.49 in998.6 mb 0.04 in1.0 mm 0.04 in1.0 mm 1.05 in26.7 mm
10:01 AM 47.1°F8.4°C 45.8°F7.7°C 95% 6.9 mph N11.1 kmh N 6.9 mph11.1 kmh 29.51 in999.3 mb 0.00 in0.0 mm 0.00 in0.0 mm 1.05 in26.7 mm
10:31 AM 47.1°F8.4°C 45.2°F7.3°C 93% 14.5 mph NNW23.3 kmh NNW 14.5 mph23.3 kmh 29.52 in999.7 mb 0.01 in0.3 mm 0.02 in0.5 mm 1.06 in26.9 mm
11:00 AM 47.8°F8.8°C 44.5°F6.9°C 88% 6.9 mph NE11.1 kmh NE 14.5 mph23.3 kmh 29.53 in1000.0 mb 0.01 in0.3 mm 0.00 in0.0 mm 1.06 in26.9 mm
11:15 AM 48.4°F9.1°C 44.4°F6.9°C 86% 7.1 mph N11.4 kmh N 9.8 mph15.8 kmh 29.53 in1000.0 mb 0.00 in0.0 mm 0.00 in0.0 mm 1.06 in26.9 mm
11:30 AM 49.3°F9.6°C 44.7°F7.1°C 84% 9.0 mph NE14.5 kmh NE 15.2 mph24.5 kmh 29.53 in1000.0 mb 0.00 in0.0 mm 0.00 in0.0 mm 1.06 in26.9 mm
11:45 AM 49.6°F9.8°C 44.4°F6.9°C 82% 8.5 mph N13.7 kmh N 10.7 mph17.2 kmh 29.54 in1000.3 mb 0.00 in0.0 mm 0.00 in0.0 mm 1.06 in26.9 mm
12:00 PM 50.2°F10.1°C 43.3°F6.3°C 77% 10.5 mph NE16.9 kmh NE 15.9 mph25.6 kmh 29.55 in1000.7 mb 0.00 in0.0 mm 0.00 in0.0 mm 1.06 in26.9 mm
12:15 PM 50.5°F10.3°C 43.3°F6.3°C 76% 7.7 mph N12.4 kmh N 13.6 mph21.9 kmh 29.54 in1000.3 mb 0.00 in0.0 mm 0.00 in0.0 mm 1.06 in26.9 mm
12:30 PM 50.9°F10.5°C 43.3°F6.3°C 75% 8.4 mph N13.5 kmh N 12.1 mph19.5 kmh 29.55 in1000.7 mb 0.00 in0.0 mm 0.00 in0.0 mm 1.06 in26.9 mm
12:45 PM 51.1°F10.6°C 43.4°F6.3°C 75% 7.0 mph N11.3 kmh N 10.7 mph17.2 kmh 29.55 in1000.7 mb 0.00 in0.0 mm 0.00 in0.0 mm 1.06 in26.9 mm
01:00 PM 50.7°F10.4°C 43.1°F6.2°C 75% 6.6 mph N10.6 kmh N 9.2 mph14.8 kmh 29.55 in1000.7 mb 0.00 in0.0 mm 0.00 in0.0 mm 1.06 in26.9 mm
01:15 PM 51.1°F10.6°C 43.4°F6.3°C 75% 5.7 mph N9.2 kmh N 9.2 mph14.8 kmh 29.55 in1000.7 mb 0.00 in0.0 mm 0.00 in0.0 mm 1.06 in26.9 mm
01:30 PM 51.4°F10.8°C 43.8°F6.6°C 75% 4.8 mph NNE7.7 kmh NNE 6.9 mph11.1 kmh 29.55 in1000.7 mb 0.00 in0.0 mm 0.00 in0.0 mm 1.06 in26.9 mm
01:45 PM 51.4°F10.8°C 43.4°F6.3°C 74% 5.5 mph N8.9 kmh N 9.8 mph15.8 kmh 29.56 in1001.0 mb 0.00 in0.0 mm 0.00 in0.0 mm 1.06 in26.9 mm
02:00 PM 51.3°F10.7°C 42.9°F6.1°C 73% 5.7 mph N9.2 kmh N 10.7 mph17.2 kmh 29.56 in1001.0 mb 0.00 in0.0 mm 0.00 in0.0 mm 1.06 in26.9 mm
02:15 PM 51.4°F10.8°C 43.4°F6.3°C 74% 4.2 mph NNE6.8 kmh NNE 6.9 mph11.1 kmh 29.56 in1001.0 mb 0.00 in0.0 mm 0.00 in0.0 mm 1.06 in26.9 mm
02:30 PM 51.3°F10.7°C 43.6°F6.4°C 75% 2.8 mph N4.5 kmh N 5.4 mph8.7 kmh 29.56 in1001.0 mb 0.00 in0.0 mm 0.00 in0.0 mm 1.06 in26.9 mm
02:45 PM 51.1°F10.6°C 42.7°F5.9°C 73% 3.1 mph N5.0 kmh N 5.4 mph8.7 kmh 29.57 in1001.4 mb 0.00 in0.0 mm 0.00 in0.0 mm 1.06 in26.9 mm
03:00 PM 50.9°F10.5°C 42.6°F5.9°C 73% 2.8 mph NNE4.5 kmh NNE 5.4 mph8.7 kmh 29.57 in1001.4 mb 0.00 in0.0 mm 0.00 in0.0 mm 1.06 in26.9 mm
03:15 PM 50.7°F10.4°C 42.4°F5.8°C 73% 3.0 mph NE4.8 kmh NE 6.0 mph9.7 kmh 29.59 in1002.0 mb 0.00 in0.0 mm 0.00 in0.0 mm 1.06 in26.9 mm
03:30 PM 50.7°F10.4°C 42.4°F5.8°C 73% 4.3 mph NE6.9 kmh NE 7.6 mph12.2 kmh 29.58 in1001.7 mb 0.00 in0.0 mm 0.00 in0.0 mm 1.06 in26.9 mm
03:45 PM 50.7°F10.4°C 42.4°F5.8°C 73% 1.6 mph NNW2.6 kmh NNW 3.1 mph5.0 kmh 29.59 in1002.0 mb 0.00 in0.0 mm 0.00 in0.0 mm 1.06 in26.9 mm
04:00 PM 50.5°F10.3°C 42.2°F5.7°C 73% 3.2 mph N5.1 kmh N 6.9 mph11.1 kmh 29.60 in1002.4 mb 0.00 in0.0 mm 0.00 in0.0 mm 1.06 in26.9 mm
04:15 PM 49.8°F9.9°C 41.5°F5.3°C 73% 3.9 mph N6.3 kmh N 6.9 mph11.1 kmh 29.60 in1002.4 mb 0.00 in0.0 mm 0.00 in0.0 mm 1.06 in26.9 mm
04:30 PM 50.0°F10.0°C 40.6°F4.8°C 70% 5.1 mph N8.2 kmh N 6.9 mph11.1 kmh 29.60 in1002.4 mb 0.00 in0.0 mm 0.00 in0.0 mm 1.06 in26.9 mm
04:45 PM 49.8°F9.9°C 41.2°F5.1°C 72% 2.7 mph N4.3 kmh N 6.0 mph9.7 kmh 29.61 in1002.7 mb 0.00 in0.0 mm 0.00 in0.0 mm 1.06 in26.9 mm
05:00 PM 48.6°F9.2°C 41.0°F5.0°C 75% 1.2 mph N1.9 kmh N 3.8 mph6.1 kmh 29.61 in1002.7 mb 0.00 in0.0 mm 0.00 in0.0 mm 1.06 in26.9 mm
05:15 PM 48.4°F9.1°C 41.2°F5.1°C 76% 1.9 mph N3.1 kmh N 3.1 mph5.0 kmh 29.62 in1003.0 mb 0.00 in0.0 mm 0.00 in0.0 mm 1.06 in26.9 mm
05:30 PM 47.8°F8.8°C 41.6°F5.3°C 79% 1.6 mph N2.6 kmh N 2.2 mph3.5 kmh 29.63 in1003.4 mb 0.00 in0.0 mm 0.00 in0.0 mm 1.06 in26.9 mm
05:45 PM 46.8°F8.2°C 41.9°F5.5°C 83% 2.0 mph NNE3.2 kmh NNE 3.1 mph5.0 kmh 29.64 in1003.7 mb 0.01 in0.3 mm 0.04 in1.0 mm 1.07 in27.2 mm
06:00 PM 45.5°F7.5°C 41.3°F5.2°C 85% Calm Calm -- 29.65 in1004.1 mb 0.01 in0.3 mm 0.00 in0.0 mm 1.07 in27.2 mm
06:15 PM 45.7°F7.6°C 42.0°F5.6°C 87% 0.2 mph N0.3 kmh N 1.6 mph2.6 kmh 29.65 in1004.1 mb 0.01 in0.3 mm 0.00 in0.0 mm 1.07 in27.2 mm
06:30 PM 46.0°F7.8°C 42.7°F5.9°C 88% 1.2 mph N1.9 kmh N 2.2 mph3.5 kmh 29.65 in1004.1 mb 0.01 in0.3 mm 0.00 in0.0 mm 1.07 in27.2 mm
06:45 PM 46.0°F7.8°C 42.7°F5.9°C 88% 1.7 mph N2.7 kmh N 3.1 mph5.0 kmh 29.66 in1004.4 mb 0.00 in0.0 mm 0.00 in0.0 mm 1.07 in27.2 mm
07:00 PM 45.5°F7.5°C 42.2°F5.7°C 88% 2.8 mph N4.5 kmh N 3.8 mph6.1 kmh 29.65 in1004.1 mb 0.00 in0.0 mm 0.00 in0.0 mm 1.07 in27.2 mm
07:15 PM 46.2°F7.9°C 42.0°F5.6°C 85% 3.8 mph N6.1 kmh N 6.9 mph11.1 kmh 29.65 in1004.1 mb 0.00 in0.0 mm 0.00 in0.0 mm 1.07 in27.2 mm
07:30 PM 45.3°F7.4°C 40.5°F4.7°C 83% 1.4 mph NNW2.3 kmh NNW 2.2 mph3.5 kmh 29.65 in1004.1 mb 0.00 in0.0 mm 0.00 in0.0 mm 1.07 in27.2 mm
07:45 PM 44.4°F6.9°C 40.2°F4.6°C 85% 0.1 mph N0.2 kmh N 0.7 mph1.1 kmh 29.67 in1004.7 mb 0.00 in0.0 mm 0.00 in0.0 mm 1.07 in27.2 mm
08:00 PM 44.4°F6.9°C 40.8°F4.9°C 87% 0.2 mph NNE0.3 kmh NNE 2.2 mph3.5 kmh 29.67 in1004.7 mb 0.00 in0.0 mm 0.00 in0.0 mm 1.07 in27.2 mm
08:15 PM 45.1°F7.3°C 41.8°F5.4°C 88% 0.8 mph N1.3 kmh N 2.2 mph3.5 kmh 29.68 in1005.1 mb 0.00 in0.0 mm 0.00 in0.0 mm 1.07 in27.2 mm
08:30 PM 45.1°F7.3°C 41.8°F5.4°C 88% 0.5 mph NE0.8 kmh NE 1.6 mph2.6 kmh 29.69 in1005.4 mb 0.00 in0.0 mm 0.00 in0.0 mm 1.07 in27.2 mm
08:45 PM 45.1°F7.3°C 41.8°F5.4°C 88% 0.1 mph N0.2 kmh N 1.6 mph2.6 kmh 29.69 in1005.4 mb 0.00 in0.0 mm 0.00 in0.0 mm 1.07 in27.2 mm
09:00 PM 45.1°F7.3°C 41.8°F5.4°C 88% 0.3 mph NW0.5 kmh NW 1.6 mph2.6 kmh 29.69 in1005.4 mb 0.00 in0.0 mm 0.00 in0.0 mm 1.07 in27.2 mm
09:15 PM 44.4°F6.9°C 41.4°F5.2°C 89% 1.5 mph N2.4 kmh N 3.1 mph5.0 kmh 29.69 in1005.4 mb 0.00 in0.0 mm 0.00 in0.0 mm 1.07 in27.2 mm
09:30 PM 44.2°F6.8°C 41.2°F5.1°C 89% 0.8 mph NE1.3 kmh NE 2.2 mph3.5 kmh 29.70 in1005.8 mb 0.00 in0.0 mm 0.00 in0.0 mm 1.07 in27.2 mm
09:45 PM 44.4°F6.9°C 41.7°F5.4°C 90% 0.7 mph ENE1.1 kmh ENE 2.2 mph3.5 kmh 29.71 in1006.1 mb 0.00 in0.0 mm 0.00 in0.0 mm 1.07 in27.2 mm
10:00 PM 45.1°F7.3°C 42.1°F5.6°C 89% 0.7 mph E1.1 kmh E 2.2 mph3.5 kmh 29.72 in1006.4 mb 0.00 in0.0 mm 0.00 in0.0 mm 1.07 in27.2 mm
10:15 PM 45.1°F7.3°C 42.1°F5.6°C 89% 0.8 mph N1.3 kmh N 3.1 mph5.0 kmh 29.72 in1006.4 mb 0.00 in0.0 mm 0.00 in0.0 mm 1.07 in27.2 mm
10:30 PM 44.4°F6.9°C 41.7°F5.4°C 90% Calm Calm -- 29.73 in1006.8 mb 0.00 in0.0 mm 0.00 in0.0 mm 1.07 in27.2 mm
10:45 PM 43.9°F6.6°C 41.1°F5.1°C 90% Calm Calm -- 29.73 in1006.8 mb 0.00 in0.0 mm 0.00 in0.0 mm 1.07 in27.2 mm
11:00 PM 43.7°F6.5°C 41.0°F5.0°C 90% Calm Calm -- 29.74 in1007.1 mb 0.00 in0.0 mm 0.00 in0.0 mm 0.29 in7.4 mm
11:15 PM 43.7°F6.5°C 41.0°F5.0°C 90% Calm Calm -- 29.75 in1007.5 mb 0.00 in0.0 mm 0.00 in0.0 mm 0.29 in7.4 mm
11:30 PM 43.7°F6.5°C 41.2°F5.1°C 91% Calm Calm -- 29.75 in1007.5 mb 0.00 in0.0 mm 0.00 in0.0 mm 0.29 in7.4 mm
11:45 PM 44.1°F6.7°C 41.6°F5.3°C 91% 0.1 mph WNW0.2 kmh WNW 0.7 mph1.1 kmh 29.76 in1007.8 mb 0.00 in0.0 mm 0.00 in0.0 mm 0.29 in7.4 mm